Two Harbors, Minnesota
Current Conditions -  °F | °C
As of 6:01 PM on Friday 19 Dec 2014 (Local Time) from KTWM Reporting Station
Overcast Overcast  
Wind Chill: 28°   Ceiling: 1100
Heat Index: 28°   Visibility: 10mi
Dew Point: 23°   Wind: 1mph
Humidity: 80%   Direction: 140°SE
Pressure: 30.17"   Gusts: NA
Location:  47.02°N, 91.67°W
Report Text: KTWM 200001Z AUTO 14001KT 10SM OVC011 M02/M05 A3017 RMK AO2
Loading
Personal Weather Stations






























Interactive Weather Map New forecast layout! Learn more

10-Day Weather Forecast

Advertisements
Track Severe Weather on mobile